createdAt,value
2023-01-11T00:00:23.876Z,11.00
2023-01-11T00:03:02.068Z,11.30
2023-01-11T00:05:29.994Z,10.90
2023-01-11T00:08:02.302Z,11.10
2023-01-11T00:10:30.540Z,11.00
2023-01-11T00:12:57.877Z,10.90
2023-01-11T00:15:25.527Z,10.80
2023-01-11T00:17:54.110Z,10.80
2023-01-11T00:20:21.479Z,10.80
2023-01-11T00:22:48.991Z,10.80
2023-01-11T00:25:17.999Z,10.80
2023-01-11T00:27:47.199Z,10.80
2023-01-11T00:30:15.156Z,10.80
2023-01-11T00:35:11.249Z,10.80
2023-01-11T00:37:39.577Z,10.80
2023-01-11T00:40:07.832Z,11.00
2023-01-11T00:45:41.565Z,10.90
2023-01-11T00:48:10.778Z,10.80
2023-01-11T00:50:40.184Z,10.90
2023-01-11T00:53:08.844Z,10.90
2023-01-11T00:55:36.580Z,10.80
2023-01-11T00:58:04.474Z,10.60
2023-01-11T01:00:32.003Z,10.70
2023-01-11T01:02:59.420Z,10.70
2023-01-11T01:05:26.855Z,10.90
2023-01-11T01:07:54.200Z,10.80
2023-01-11T01:10:21.828Z,11.30
2023-01-11T01:13:07.774Z,10.60
2023-01-11T01:15:35.530Z,10.50
2023-01-11T01:18:02.895Z,10.60
2023-01-11T01:20:30.270Z,10.40
2023-01-11T01:22:57.618Z,10.60
2023-01-11T01:25:24.958Z,10.40
2023-01-11T01:27:52.422Z,10.60
2023-01-11T01:30:20.957Z,10.40
2023-01-11T01:32:48.298Z,10.30
2023-01-11T01:35:15.704Z,10.30
2023-01-11T01:37:44.769Z,10.30
2023-01-11T01:40:12.594Z,10.60
2023-01-11T01:42:39.908Z,10.20
2023-01-11T01:45:18.466Z,10.50
2023-01-11T01:47:52.964Z,10.30
2023-01-11T01:50:25.441Z,10.50
2023-01-11T01:52:59.232Z,10.30
2023-01-11T01:55:33.847Z,10.20
2023-01-11T01:58:04.451Z,10.10
2023-01-11T02:00:32.061Z,10.30
2023-01-11T02:03:00.981Z,10.30
2023-01-11T02:05:28.500Z,10.80
2023-01-11T02:07:58.827Z,10.00
2023-01-11T02:10:28.851Z,10.00
2023-01-11T02:13:02.840Z,9.90
2023-01-11T02:15:30.438Z,9.90
2023-01-11T02:17:57.948Z,9.80
2023-01-11T02:20:46.673Z,10.10
2023-01-11T02:23:35.484Z,10.10
2023-01-11T02:26:27.191Z,9.80
2023-01-11T02:29:20.790Z,9.80
2023-01-11T02:31:56.171Z,9.80
2023-01-11T02:34:41.763Z,9.70
2023-01-11T02:37:23.008Z,9.80
2023-01-11T02:39:56.254Z,9.90
2023-01-11T02:43:01.553Z,9.60
2023-01-11T02:45:56.367Z,9.60
2023-01-11T02:48:27.904Z,9.40
2023-01-11T02:51:16.195Z,9.70
2023-01-11T02:54:11.337Z,9.50
2023-01-11T02:56:41.899Z,9.60
2023-01-11T02:59:17.466Z,10.00
2023-01-11T03:01:51.589Z,9.60
2023-01-11T03:04:38.071Z,9.40
2023-01-11T03:07:20.375Z,10.40
2023-01-11T03:10:30.072Z,9.20
2023-01-11T03:13:06.348Z,9.50
2023-01-11T03:15:42.918Z,9.40
2023-01-11T03:18:19.256Z,9.40
2023-01-11T03:21:10.539Z,9.40
2023-01-11T03:24:04.992Z,9.40
2023-01-11T03:26:54.266Z,9.50
2023-01-11T03:29:33.130Z,9.40
2023-01-11T03:32:11.775Z,9.50
2023-01-11T03:34:55.785Z,9.40
2023-01-11T03:37:35.994Z,9.30
2023-01-11T03:40:16.957Z,9.60
2023-01-11T03:43:06.568Z,9.60
2023-01-11T03:45:38.937Z,9.30
2023-01-11T03:48:09.971Z,9.10
2023-01-11T03:50:37.706Z,9.70
2023-01-11T03:53:08.260Z,9.30
2023-01-11T03:55:39.631Z,9.60
2023-01-11T03:58:10.401Z,9.30
2023-01-11T04:00:38.137Z,9.80
2023-01-11T04:03:06.269Z,9.70
2023-01-11T04:05:35.427Z,9.70
2023-01-11T04:08:02.903Z,10.10
2023-01-11T04:10:30.187Z,9.30
2023-01-11T04:12:57.484Z,10.40
2023-01-11T04:15:24.884Z,8.80
2023-01-11T04:17:52.194Z,10.10
2023-01-11T04:20:19.547Z,9.30
2023-01-11T04:22:46.881Z,9.80
2023-01-11T04:25:14.256Z,8.90
2023-01-11T04:27:41.578Z,8.80
2023-01-11T04:30:09.879Z,8.90
2023-01-11T04:32:37.202Z,8.80
2023-01-11T04:35:04.905Z,8.70
2023-01-11T04:37:32.210Z,8.70
2023-01-11T04:39:59.602Z,9.00
2023-01-11T04:42:27.029Z,8.70
2023-01-11T04:44:54.375Z,9.00
2023-01-11T04:47:23.803Z,8.70
2023-01-11T04:52:20.615Z,8.70
2023-01-11T04:54:48.835Z,8.70
2023-01-11T04:57:17.456Z,8.80
2023-01-11T04:59:46.817Z,9.70
2023-01-11T05:02:15.431Z,8.70
2023-01-11T05:04:43.142Z,8.60
2023-01-11T05:07:10.955Z,8.80
2023-01-11T05:09:40.819Z,9.40
2023-01-11T05:12:08.238Z,8.50
2023-01-11T05:14:35.561Z,8.50
2023-01-11T05:17:02.975Z,8.50
2023-01-11T05:19:30.279Z,8.80
2023-01-11T05:21:57.585Z,8.90
2023-01-11T05:24:24.858Z,8.50
2023-01-11T05:29:21.241Z,8.50
2023-01-11T05:31:48.994Z,9.60
2023-01-11T05:34:17.531Z,8.30
2023-01-11T05:36:45.226Z,8.40
2023-01-11T05:39:14.010Z,8.20
2023-01-11T05:41:41.480Z,8.40
2023-01-11T05:44:30.497Z,8.70
2023-01-11T05:46:57.792Z,8.60
2023-01-11T05:51:52.779Z,8.30
2023-01-11T05:54:20.169Z,8.30
2023-01-11T05:56:47.587Z,8.30
2023-01-11T05:59:15.007Z,8.70
2023-01-11T06:01:42.800Z,8.50
2023-01-11T06:04:10.145Z,8.60
2023-01-11T06:06:37.533Z,8.70
2023-01-11T06:09:04.905Z,8.30
2023-01-11T06:11:32.304Z,8.40
2023-01-11T06:16:27.331Z,8.40
2023-01-11T06:18:54.705Z,7.50
2023-01-11T06:23:51.124Z,7.80
2023-01-11T06:26:22.085Z,8.30
2023-01-11T06:28:50.553Z,8.40
2023-01-11T06:31:18.535Z,9.40
2023-01-11T06:33:46.870Z,8.20
2023-01-11T06:38:43.228Z,8.30
2023-01-11T06:41:11.726Z,8.60
2023-01-11T06:43:41.809Z,9.60
2023-01-11T06:46:16.586Z,9.50
2023-01-11T06:48:44.877Z,8.30
2023-01-11T06:51:13.377Z,8.30
2023-01-11T06:53:43.134Z,8.20
2023-01-11T06:56:16.133Z,8.30
2023-01-11T06:58:45.060Z,8.50
2023-01-11T07:01:14.284Z,8.70
2023-01-11T07:03:41.801Z,8.30
2023-01-11T07:06:09.054Z,8.30
2023-01-11T07:08:36.497Z,8.30
2023-01-11T07:11:04.107Z,8.40
2023-01-11T07:13:31.444Z,8.10
2023-01-11T07:18:26.565Z,8.20
2023-01-11T07:20:53.997Z,9.00
2023-01-11T07:23:21.323Z,8.10
2023-01-11T07:25:49.887Z,8.30
2023-01-11T07:28:17.530Z,8.20
2023-01-11T07:33:25.982Z,8.20
2023-01-11T07:38:21.325Z,8.20
2023-01-11T07:40:48.681Z,9.30
2023-01-11T07:43:16.130Z,8.70
2023-01-11T07:45:47.056Z,8.20
2023-01-11T07:50:44.830Z,8.10
2023-01-11T07:53:13.727Z,8.20
2023-01-11T07:55:41.849Z,8.10
2023-01-11T07:58:12.031Z,8.10
2023-01-11T08:05:36.714Z,8.20
2023-01-11T08:08:05.108Z,8.10
2023-01-11T08:10:32.922Z,8.10
2023-01-11T08:18:15.184Z,8.20
2023-01-11T08:20:43.382Z,8.10
2023-01-11T08:23:10.834Z,8.00
2023-01-11T08:25:38.361Z,8.60
2023-01-11T08:28:07.182Z,8.40
2023-01-11T08:30:37.666Z,8.20
2023-01-11T08:33:05.860Z,8.00
2023-01-11T08:35:38.893Z,8.50
2023-01-11T08:38:06.830Z,8.30
2023-01-11T08:45:29.752Z,8.30
2023-01-11T08:47:59.671Z,8.30
2023-01-11T08:50:27.141Z,8.60
2023-01-11T08:55:22.124Z,8.30
2023-01-11T08:57:49.484Z,8.60
2023-01-11T09:00:17.415Z,8.60
2023-01-11T09:02:46.425Z,8.20
2023-01-11T09:05:14.939Z,9.70
2023-01-11T09:07:42.959Z,8.40
2023-01-11T09:10:10.752Z,8.30
2023-01-11T09:12:38.114Z,8.30
2023-01-11T09:15:06.232Z,8.30
2023-01-11T09:17:33.864Z,8.30
2023-01-11T09:20:01.814Z,8.20
2023-01-11T09:22:29.107Z,8.60
2023-01-11T09:24:59.245Z,8.20
2023-01-11T09:27:28.079Z,8.30
2023-01-11T09:29:55.321Z,8.30
2023-01-11T09:32:22.884Z,9.30
2023-01-11T09:34:53.320Z,9.60
2023-01-11T09:37:22.614Z,9.00
2023-01-11T09:39:51.465Z,8.40
2023-01-11T09:42:33.443Z,8.50
2023-01-11T09:45:27.458Z,8.50
2023-01-11T09:48:05.140Z,8.50
2023-01-11T09:50:41.149Z,8.60
2023-01-11T09:53:30.808Z,9.00
2023-01-11T09:56:01.442Z,9.00
2023-01-11T09:59:02.674Z,8.70
2023-01-11T10:02:10.121Z,8.90
2023-01-11T10:04:51.333Z,8.90
2023-01-11T10:07:43.499Z,9.10
2023-01-11T10:18:29.797Z,9.10
2023-01-11T10:18:37.853Z,9.00
2023-01-11T10:20:37.741Z,9.10
2023-01-11T10:23:14.914Z,9.20
2023-01-11T10:25:51.783Z,9.20
2023-01-11T10:28:43.201Z,9.20
2023-01-11T10:31:28.755Z,9.30
2023-01-11T10:34:33.023Z,9.30
2023-01-11T10:37:24.118Z,9.80
2023-01-11T10:40:25.234Z,9.30
2023-01-11T10:43:04.620Z,9.30
2023-01-11T10:45:54.385Z,9.70
2023-01-11T10:48:34.828Z,9.30
2023-01-11T10:51:27.102Z,9.40
2023-01-11T10:54:00.727Z,9.50
2023-01-11T10:57:02.701Z,10.30
2023-01-11T11:00:13.538Z,9.70
2023-01-11T11:02:48.659Z,9.60
2023-01-11T11:05:33.225Z,9.60
2023-01-11T11:08:26.636Z,9.60
2023-01-11T11:11:01.787Z,9.60
2023-01-11T11:13:43.304Z,9.70
2023-01-11T11:16:30.478Z,9.80
2023-01-11T11:18:59.105Z,9.80
2023-01-11T11:21:31.691Z,10.50
2023-01-11T11:24:03.957Z,10.00
2023-01-11T11:26:38.362Z,10.20
2023-01-11T11:29:10.632Z,11.50
2023-01-11T11:31:44.230Z,11.10
2023-01-11T11:34:22.356Z,11.10
2023-01-11T11:36:52.086Z,11.20
2023-01-11T11:39:28.459Z,11.30
2023-01-11T11:42:16.686Z,11.50
2023-01-11T11:45:04.626Z,11.70
2023-01-11T11:47:41.302Z,11.80
2023-01-11T11:50:43.227Z,12.00
2023-01-11T11:53:25.404Z,12.00
2023-01-11T11:56:06.368Z,12.00
2023-01-11T11:58:50.202Z,12.10
2023-01-11T12:01:26.433Z,12.30
2023-01-11T12:04:03.036Z,12.40
2023-01-11T12:06:37.298Z,12.50
2023-01-11T12:12:26.378Z,12.00
2023-01-11T12:15:19.871Z,11.90
2023-01-11T12:18:15.396Z,11.80
2023-01-11T12:20:44.782Z,11.70
2023-01-11T12:23:24.369Z,12.10
2023-01-11T12:30:31.408Z,12.10
2023-01-11T12:33:49.687Z,12.40
2023-01-11T12:36:58.809Z,12.50
2023-01-11T12:39:56.314Z,12.50
2023-01-11T12:42:41.915Z,12.60
2023-01-11T12:45:17.305Z,12.60
2023-01-11T12:51:32.963Z,12.00
2023-01-11T12:54:28.027Z,11.70
2023-01-11T12:57:06.117Z,11.50
2023-01-11T13:00:12.948Z,11.40
2023-01-11T13:03:11.553Z,11.30
2023-01-11T13:05:57.583Z,11.20
2023-01-11T13:08:56.285Z,11.10
2023-01-11T13:11:57.341Z,11.10
2023-01-11T13:14:53.927Z,11.30
2023-01-11T13:17:40.883Z,10.90
2023-01-11T13:20:27.107Z,10.90
2023-01-11T13:23:06.099Z,10.90
2023-01-11T13:25:37.390Z,11.70
2023-01-11T13:28:33.898Z,10.80
2023-01-11T13:31:05.334Z,11.30
2023-01-11T13:33:35.875Z,11.00
2023-01-11T13:36:22.853Z,11.00
2023-01-11T13:39:09.361Z,11.30
2023-01-11T13:41:51.018Z,11.10
2023-01-11T13:44:24.179Z,11.10
2023-01-11T13:47:43.601Z,11.00
2023-01-11T13:50:12.444Z,10.90
2023-01-11T13:52:54.903Z,10.90
2023-01-11T13:55:43.400Z,10.90
2023-01-11T13:58:29.117Z,11.50
2023-01-11T14:01:19.416Z,10.40
2023-01-11T14:04:12.462Z,9.80
2023-01-11T14:07:21.989Z,9.30
2023-01-11T14:09:59.331Z,8.80
2023-01-11T14:12:33.821Z,8.60
2023-01-11T14:15:19.886Z,8.90
2023-01-11T14:18:13.161Z,8.40
2023-01-11T14:20:57.457Z,8.30
2023-01-11T14:23:45.018Z,8.30
2023-01-11T14:26:39.433Z,9.40
2023-01-11T14:29:25.573Z,8.50
2023-01-11T14:31:59.824Z,8.50
2023-01-11T14:34:43.748Z,8.40
2023-01-11T14:37:34.482Z,8.10
2023-01-11T14:40:20.632Z,8.50
2023-01-11T14:43:06.932Z,8.60
2023-01-11T14:45:52.157Z,8.50
2023-01-11T14:48:29.773Z,8.80
2023-01-11T14:51:33.245Z,8.80
2023-01-11T14:54:11.742Z,8.90
2023-01-11T14:56:41.876Z,8.70
2023-01-11T14:59:39.798Z,8.60
2023-01-11T15:02:24.061Z,8.80
2023-01-11T15:04:56.899Z,8.70
2023-01-11T15:07:30.467Z,9.00
2023-01-11T15:10:00.196Z,9.40
2023-01-11T15:12:38.706Z,8.80
2023-01-11T15:15:22.657Z,9.30
2023-01-11T15:18:15.603Z,8.90
2023-01-11T15:21:01.691Z,9.40
2023-01-11T15:23:40.072Z,9.00
2023-01-11T15:26:09.529Z,8.80
2023-01-11T15:28:47.546Z,10.30
2023-01-11T15:31:31.554Z,9.10
2023-01-11T15:34:24.484Z,8.80
2023-01-11T15:37:05.442Z,9.20
2023-01-11T15:39:57.914Z,8.70
2023-01-11T15:43:15.850Z,8.70
2023-01-11T15:46:19.707Z,8.70
2023-01-11T15:48:53.402Z,9.30
2023-01-11T15:51:20.713Z,9.00
2023-01-11T15:54:32.538Z,9.10
2023-01-11T15:57:39.866Z,8.60
2023-01-11T16:00:19.305Z,8.70
2023-01-11T16:02:49.654Z,9.20
2023-01-11T16:05:23.454Z,8.60
2023-01-11T16:08:16.468Z,8.60
2023-01-11T16:11:01.567Z,8.60
2023-01-11T16:13:59.026Z,8.50
2023-01-11T16:16:33.324Z,8.50
2023-01-11T16:19:18.130Z,8.70
2023-01-11T16:21:49.932Z,8.40
2023-01-11T16:24:22.096Z,8.40
2023-01-11T16:27:02.962Z,9.40
2023-01-11T16:29:35.911Z,8.50
2023-01-11T16:32:18.171Z,8.80
2023-01-11T16:34:47.598Z,8.80
2023-01-11T16:37:38.628Z,8.30
2023-01-11T16:40:14.905Z,8.30
2023-01-11T16:42:51.033Z,8.10
2023-01-11T16:45:24.712Z,10.20
2023-01-11T16:48:07.512Z,8.10
2023-01-11T16:50:35.374Z,8.10
2023-01-11T16:53:05.057Z,8.00
2023-01-11T16:56:13.963Z,8.10
2023-01-11T16:58:41.822Z,8.00
2023-01-11T17:01:12.706Z,7.90
2023-01-11T17:03:54.461Z,8.00
2023-01-11T17:06:25.942Z,7.80
2023-01-11T17:08:56.408Z,8.70
2023-01-11T17:11:41.851Z,7.60
2023-01-11T17:14:20.628Z,9.50
2023-01-11T17:16:59.784Z,7.80
2023-01-11T17:19:30.848Z,8.70
2023-01-11T17:22:08.679Z,7.90
2023-01-11T17:24:48.563Z,7.90
2023-01-11T17:27:21.003Z,9.40
2023-01-11T17:29:49.473Z,9.00
2023-01-11T17:32:34.427Z,8.60
2023-01-11T17:35:13.788Z,8.00
2023-01-11T17:37:44.859Z,8.10
2023-01-11T17:40:32.197Z,8.10
2023-01-11T17:43:39.434Z,8.10
2023-01-11T17:46:08.215Z,8.20
2023-01-11T17:51:04.594Z,8.30
2023-01-11T17:53:34.349Z,8.30
2023-01-11T17:56:34.488Z,10.20
2023-01-11T17:59:23.435Z,8.30
2023-01-11T18:01:53.769Z,8.80
2023-01-11T18:04:22.829Z,8.60
2023-01-11T18:06:54.550Z,8.50
2023-01-11T18:09:30.578Z,8.80
2023-01-11T18:12:12.295Z,9.60
2023-01-11T18:14:47.955Z,9.60
2023-01-11T18:17:38.872Z,9.60
2023-01-11T18:20:29.356Z,8.80
2023-01-11T18:23:24.691Z,8.90
2023-01-11T18:26:28.779Z,8.80
2023-01-11T18:28:56.139Z,8.90
2023-01-11T18:31:23.509Z,9.00
2023-01-11T18:33:50.874Z,9.50
2023-01-11T18:36:23.579Z,9.60
2023-01-11T18:38:51.322Z,9.00
2023-01-11T18:41:37.577Z,9.20
2023-01-11T18:44:05.172Z,9.00
2023-01-11T18:46:32.566Z,9.00
2023-01-11T18:48:59.980Z,9.40
2023-01-11T18:51:32.651Z,9.10
2023-01-11T18:53:59.963Z,9.20
2023-01-11T18:56:27.280Z,9.30
2023-01-11T19:01:22.485Z,9.20
2023-01-11T19:03:50.495Z,9.30
2023-01-11T19:06:20.979Z,9.30
2023-01-11T19:08:48.811Z,9.40
2023-01-11T19:11:16.988Z,10.60
2023-01-11T19:13:46.740Z,10.00
2023-01-11T19:16:15.312Z,9.50
2023-01-11T19:18:42.657Z,10.10
2023-01-11T19:21:11.900Z,10.30
2023-01-11T19:23:39.500Z,9.50
2023-01-11T19:26:07.394Z,9.90
2023-01-11T19:28:34.688Z,9.80
2023-01-11T19:31:11.321Z,9.60
2023-01-11T19:33:40.200Z,9.60
2023-01-11T19:36:08.621Z,10.40
2023-01-11T19:38:36.471Z,9.60
2023-01-11T19:41:06.670Z,9.90
2023-01-11T19:43:34.286Z,9.70
2023-01-11T19:46:03.780Z,9.60
2023-01-11T19:48:34.714Z,9.70
2023-01-11T19:51:04.514Z,10.00
2023-01-11T19:53:32.789Z,9.70
2023-01-11T19:56:09.172Z,9.90
2023-01-11T19:58:38.000Z,9.70
2023-01-11T20:01:12.542Z,10.10
2023-01-11T20:03:44.559Z,9.80
2023-01-11T20:06:11.947Z,10.00
2023-01-11T20:11:13.338Z,10.20
2023-01-11T20:13:41.661Z,9.60
2023-01-11T20:16:13.720Z,10.20
2023-01-11T20:18:42.507Z,9.90
2023-01-11T20:21:10.974Z,9.90
2023-01-11T20:23:38.293Z,9.80
2023-01-11T20:26:07.996Z,9.90
2023-01-11T20:28:35.266Z,10.50
2023-01-11T20:31:06.685Z,9.70
2023-01-11T20:33:34.188Z,9.90
2023-01-11T20:36:01.656Z,9.90
2023-01-11T20:40:57.193Z,10.00
2023-01-11T20:43:24.520Z,10.40
2023-01-11T20:45:56.560Z,10.10
2023-01-11T20:48:23.982Z,9.80
2023-01-11T20:50:53.399Z,10.20
2023-01-11T20:53:20.827Z,11.00
2023-01-11T20:58:16.804Z,10.00
2023-01-11T21:00:44.199Z,10.00
2023-01-11T21:03:11.546Z,10.20
2023-01-11T21:05:38.888Z,10.10
2023-01-11T21:08:06.355Z,10.00
2023-01-11T21:10:34.813Z,9.90
2023-01-11T21:15:30.948Z,9.90
2023-01-11T21:17:58.242Z,10.10
2023-01-11T21:20:25.510Z,9.80
2023-01-11T21:22:52.790Z,9.80
2023-01-11T21:25:20.162Z,9.90
2023-01-11T21:27:47.416Z,9.90
2023-01-11T21:30:14.862Z,10.50
2023-01-11T21:32:42.374Z,10.10
2023-01-11T21:35:09.840Z,10.40
2023-01-11T21:37:37.266Z,10.80
2023-01-11T21:40:05.134Z,10.50
2023-01-11T21:42:32.692Z,10.30
2023-01-11T21:45:00.269Z,10.40
2023-01-11T21:47:27.547Z,10.50
2023-01-11T21:49:56.066Z,10.40
2023-01-11T21:52:23.526Z,11.00
2023-01-11T21:54:52.611Z,10.50
2023-01-11T21:57:20.794Z,10.50
2023-01-11T21:59:48.178Z,10.60
2023-01-11T22:04:43.555Z,10.50
2023-01-11T22:07:10.914Z,10.50
2023-01-11T22:09:44.794Z,10.70
2023-01-11T22:12:20.660Z,10.40
2023-01-11T22:14:48.141Z,10.90
2023-01-11T22:17:15.793Z,10.60
2023-01-11T22:19:43.296Z,11.80
2023-01-11T22:22:11.708Z,10.60
2023-01-11T22:24:40.097Z,10.60
2023-01-11T22:27:07.524Z,10.50
2023-01-11T22:29:35.179Z,10.60
2023-01-11T22:32:04.454Z,10.50
2023-01-11T22:34:34.648Z,10.50
2023-01-11T22:37:02.144Z,11.20
2023-01-11T22:39:29.733Z,11.00
2023-01-11T22:41:57.171Z,10.80
2023-01-11T22:44:24.900Z,10.80
2023-01-11T22:46:52.483Z,10.60
2023-01-11T22:49:19.938Z,10.60
2023-01-11T22:51:47.591Z,10.60
2023-01-11T22:54:15.283Z,10.70
2023-01-11T22:56:43.140Z,10.30
2023-01-11T22:59:11.029Z,10.80
2023-01-11T23:01:40.414Z,10.70
2023-01-11T23:04:10.849Z,10.70
2023-01-11T23:06:40.232Z,10.80
2023-01-11T23:09:16.330Z,10.80
2023-01-11T23:12:03.759Z,10.80
2023-01-11T23:14:33.023Z,10.90
2023-01-11T23:17:06.302Z,11.10
2023-01-11T23:19:36.501Z,10.80
2023-01-11T23:22:05.057Z,11.30
2023-01-11T23:24:32.606Z,10.80
2023-01-11T23:27:00.029Z,11.50
2023-01-11T23:29:27.858Z,11.00
2023-01-11T23:31:58.035Z,11.20
2023-01-11T23:34:25.578Z,11.00
2023-01-11T23:36:53.105Z,11.20
2023-01-11T23:39:20.543Z,11.00
2023-01-11T23:42:08.657Z,11.10
2023-01-11T23:44:36.822Z,11.20
2023-01-11T23:47:22.276Z,10.80
2023-01-11T23:49:55.272Z,10.70
2023-01-11T23:52:27.044Z,10.60
2023-01-11T23:54:54.906Z,10.60
2023-01-11T23:57:24.109Z,10.70
2023-01-11T23:59:51.588Z,11.00
